ADDS METAR Data INFO
IDs: Format: Raw Decoded Include TAF

Data at: 0714 UTC 24 Jun 2018

K0V4 240655Z AUTO 00000KT 4SM CLR 21/21 A2987 RMK AO1 T02080207
K0V4 240635Z AUTO 00000KT 5SM SCT090 21/21 A2987 RMK AO1 T02100208
K0V4 240615Z AUTO 00000KT 10SM BKN090 21/21 A2988 RMK AO1 T02100209
K0V4 240555Z AUTO 00000KT 5SM SCT090 21/21 A2988 RMK AO1 T02070206 10279 20207
K0V4 240535Z AUTO 00000KT 4SM SCT090 21/21 A2987 RMK AO1 T02100210
K0V4 240515Z AUTO 00000KT 10SM BKN090 21/21 A2988 RMK AO1 T02120211
K0V4 240455Z AUTO 00000KT 7SM SCT090 22/22 A2988 RMK AO1 T02170216 403100204
K0V4 240435Z AUTO 00000KT 10SM CLR 22/22 A2988 RMK AO1 T02200219
K0V4 240415Z AUTO 00000KT 10SM CLR 22/22 A2987 RMK AO1 T02190219
K0V4 240355Z AUTO 00000KT 10SM CLR 22/22 A2987 RMK AO1 T02190218
K0V4 240335Z AUTO 00000KT 7SM CLR 22/22 A2987 RMK AO1 T02200220
K0V4 240315Z AUTO 00000KT 10SM CLR 22/22 A2986 RMK AO1 T02200219
K0V4 240255Z AUTO 00000KT 5SM CLR 22/22 A2986 RMK AO1 T02210221
K0V4 240235Z AUTO 00000KT 7SM CLR 23/23 A2986 RMK AO1 T02280227
K0V4 240215Z AUTO 00000KT 10SM SCT075 23/23 A2985 RMK AO1 T02330232
K0V4 240155Z AUTO 00000KT 10SM SCT075 23/23 A2985 RMK AO1 T02310230
K0V4 240135Z AUTO 00000KT 10SM CLR 24/24 A2984 RMK AO1 T02400239
K0V4 240115Z AUTO 00000KT 10SM CLR 24/24 A2984 RMK AO1 T02420241
K0V4 240055Z AUTO 00000KT 10SM CLR 25/25 A2983 RMK AO1 T02480248
K0V4 240035Z AUTO 00000KT 10SM SCT110 26/25 A2983 RMK AO1 T02570249
K0V4 240015Z AUTO 00000KT 10SM BKN100 26/25 A2983 RMK AO1 T02620249
K0V4 232355Z AUTO 00000KT 10SM SCT080 BKN100 28/23 A2983 RMK AO1 T02810228 10310 20273
K0V4 232335Z AUTO 00000KT 10SM BKN100 28/23 A2982 RMK AO1 T02760226
K0V4 232315Z AUTO 00000KT 10SM SCT100 28/22 A2982 RMK AO1 T02770220
K0V4 232255Z AUTO 26003KT 10SM CLR 30/22 A2982 RMK AO1 T02950220
K0V4 232235Z AUTO 25007KT 10SM CLR 30/22 A2982 RMK AO1 T02950215
K0V4 232215Z AUTO 27005KT 10SM CLR 30/21 A2982 RMK AO1 T02960214
K0V4 232155Z AUTO 23005KT 10SM SCT043 SCT049 SCT080 30/22 A2981 RMK AO1 T02950220
K0V4 232135Z AUTO 23013G16KT 10SM SCT046 SCT055 BKN065 30/21 A2982 RMK AO1 T02950213
K0V4 232115Z AUTO 32003KT 10SM SCT048 SCT065 29/22 A2982 RMK AO1 T02930218
K0V4 232055Z AUTO 31005KT 10SM SCT048 BKN065 BKN120 29/22 A2982 RMK AO1 T02930216
K0V4 232035Z AUTO 23006KT 10SM SCT041 BKN065 BKN075 30/21 A2981 RMK AO1 T02990206
K0V4 232015Z AUTO 23006KT 10SM SCT039 31/21 A2981 RMK AO1 T03090213
K0V4 231955Z AUTO 21008KT 10SM SCT035 31/22 A2982 RMK AO1 T03050218
K0V4 231935Z AUTO 24009KT 10SM SCT035 30/23 A2982 RMK AO1 T03040225
K0V4 231915Z AUTO 22006KT 10SM BKN035 BKN041 BKN100 30/23 A2983 RMK AO1 T03010227
K0V4 231855Z AUTO 23005KT 10SM SCT032 BKN039 BKN100 29/22 A2983 RMK AO1 T02940222
K0V4 231835Z AUTO 19009KT 10SM SCT025 SCT031 SCT036 29/22 A2984 RMK AO1 T02890221
K0V4 231815Z AUTO 23006KT 10SM SCT023 BKN090 29/23 A2985 RMK AO1 T02880232
K0V4 231755Z AUTO 23003KT 10SM OVC090 27/22 A2985 RMK AO1 T02710223 10277 20210
K0V4 231735Z AUTO 22005KT 10SM SCT022 OVC090 28/23 A2986 RMK AO1 T02770227
K0V4 231715Z AUTO 00000KT 10SM SCT020 SCT065 OVC100 27/22 A2986 RMK AO1 T02720224
K0V4 231655Z AUTO 24004KT 10SM SCT020 BKN065 OVC090 27/22 A2986 RMK AO1 T02660223
K0V4 231635Z AUTO 26004KT 10SM OVC020 26/23 A2987 RMK AO1 T02610225
K0V4 231615Z AUTO 24005KT 10SM OVC018 25/23 A2987 RMK AO1 T02500225
K0V4 231555Z AUTO 25004KT 10SM OVC016 25/23 A2987 RMK AO1 T02450233
K0V4 231535Z AUTO 24005KT 10SM OVC016 25/23 A2987 RMK AO1 T02460227
K0V4 231515Z AUTO 26005KT 10SM BKN012 OVC018 25/24 A2987 RMK AO1 T02460236
K0V4 231455Z AUTO 27005KT 10SM OVC012 24/23 A2986 RMK AO1 T02400229
K0V4 231435Z AUTO 27004KT 10SM OVC010 24/23 A2986 RMK AO1 T02350232
K0V4 231415Z AUTO 22005KT 10SM BKN010 OVC015 23/23 A2986 RMK AO1 T02340232
K0V4 231355Z AUTO 22005KT 10SM BKN010 OVC016 23/23 A2987 RMK AO1 T02300229
K0V4 231335Z AUTO 23006KT 10SM BKN010 OVC015 23/23 A2987 RMK AO1 T02260226
K0V4 231315Z AUTO 20006KT 10SM BKN007 OVC015 23/23 A2987 RMK AO1 T02280228
K0V4 231255Z AUTO 23003KT 10SM BKN007 OVC015 22/22 A2986 RMK AO1 T02190219
K0V4 231235Z AUTO 00000KT 1 1/2SM OVC007 22/21 A2986 RMK AO1 T02150214
K0V4 231215Z AUTO 00000KT 1 1/2SM OVC003 21/21 A2986 RMK AO1 T02120211
K0V4 231155Z AUTO 00000KT 1SM OVC003 21/21 A2986 RMK AO1 70138 T02100209 10210 20205
K0V4 231135Z AUTO 00000KT 1 1/4SM OVC003 21/21 A2985 RMK AO1 T02100209
K0V4 231115Z AUTO 00000KT 3/4SM OVC003 21/21 A2985 RMK AO1 T02080207
K0V4 231055Z AUTO 00000KT 1/2SM OVC003 21/21 A2984 RMK AO1 T02080207
K0V4 231035Z AUTO 00000KT 3/4SM OVC003 21/21 A2983 RMK AO1 T02050205
K0V4 231015Z AUTO 00000KT 3/4SM OVC003 21/21 A2983 RMK AO1 T02050205
K0V4 230955Z AUTO 00000KT 1 1/4SM OVC003 21/21 A2983 RMK AO1 T02050205
K0V4 230935Z AUTO 36003KT 3/4SM OVC003 21/21 A2983 RMK AO1 T02050205
K0V4 230915Z AUTO 00000KT 3/4SM OVC003 21/21 A2983 RMK AO1 T02050205
K0V4 230855Z AUTO 00000KT 1 1/4SM OVC003 21/21 A2983 RMK AO1 T02050205
K0V4 230835Z AUTO 00000KT 2SM OVC003 21/21 A2983 RMK AO1 T02050205
K0V4 230815Z AUTO 00000KT 2 1/2SM OVC003 21/21 A2983 RMK AO1 T02050205
K0V4 230755Z AUTO 00000KT 2SM OVC003 21/20 A2982 RMK AO1 T02050204
K0V4 230735Z AUTO 00000KT 3SM OVC003 21/20 A2983 RMK AO1 T02050203
K0V4 230715Z AUTO 00000KT 4SM OVC003 21/20 A2983 RMK AO1 T02050204
K0V4 230655Z AUTO 00000KT 7SM OVC003 21/21 A2983 RMK AO1 T02050205
K0V4 230635Z AUTO 00000KT 10SM OVC003 21/20 A2984 RMK AO1 T02050203
K0V4 230615Z AUTO 02004KT 5SM OVC003 21/21 A2983 RMK AO1 T02050205
K0V4 230555Z AUTO 05003KT 5SM OVC003 21/20 A2985 RMK AO1 60120 T02050203 10209 20203
K0V4 230535Z AUTO 05003KT 5SM OVC003 21/20 A2984 RMK AO1 T02050203
K0V4 230515Z AUTO 05006KT 7SM OVC003 21/20 A2984 RMK AO1 T02050203
K0V4 230455Z AUTO 02005KT 5SM OVC003 21/20 A2985 RMK AO1 P0001 T02050203 403030203
K0V4 230435Z AUTO 02005KT 4SM OVC003 21/20 A2984 RMK AO1 T02050203
K0V4 230415Z AUTO 35004KT 4SM OVC003 20/20 A2985 RMK AO1 T02030202
K0V4 230355Z AUTO 02006KT 7SM OVC003 20/20 A2984 RMK AO1 P0014 T02030202
K0V4 230335Z AUTO 01005KT 10SM OVC005 20/20 A2983 RMK AO1 P0014 T02030202
K0V4 230315Z AUTO 02008KT 2 1/2SM OVC005 20/20 A2983 RMK AO1 VIS 1V5 P0014 T02040203
K0V4 230255Z AUTO 36005KT 10SM OVC005 20/20 A2984 RMK AO1 60105 T02040203
K0V4 230235Z AUTO 02007KT 10SM OVC005 20/20 A2983 RMK AO1 T02030202
K0V4 230215Z AUTO 02006KT 10SM OVC005 20/20 A2983 RMK AO1 T02030203
K0V4 230155Z AUTO 01007KT 10SM OVC005 20/20 A2984 RMK AO1 P0001 T02030202
K0V4 230135Z AUTO 02007KT 10SM BKN005 BKN050 BKN090 20/20 A2983 RMK AO1 P0001 T02030202
K0V4 230115Z AUTO 03005KT 10SM BKN005 BKN050 OVC090 20/20 A2982 RMK AO1 P0001 T02030202
K0V4 230055Z AUTO 01007KT 10SM BKN005 BKN017 OVC060 21/20 A2982 RMK AO1 P0104 T02050203
K0V4 230035Z AUTO 02010G22KT 1/4SM OVC005 21/20 A2982 RMK AO1 P0104 T02050203
K0V4 230015Z AUTO 32012G18KT 1 1/2SM OVC005 21/21 A2983 RMK AO1 P0023 T02050205
K0V4 222355Z AUTO 02011G15KT 10SM OVC005 21/21 A2978 RMK AO1 P0016 60017 T02100208 10302 20210
K0V4 222335Z AUTO 04008KT 10SM OVC005 21/21 A2978 RMK AO1 P0016 T02120211
K0V4 222315Z AUTO 03011G15KT 2SM OVC005 22/22 A2979 RMK AO1 P0015 T02150215
K0V4 222255Z AUTO 29003KT 10SM BKN008 BKN047 OVC050 22/22 A2982 RMK AO1 T02210220
K0V4 222235Z AUTO 01011G15KT 10SM SCT012 BKN039 OVC055 23/23 A2978 RMK AO1 T02330232
K0V4 222215Z AUTO 02010KT 10SM SCT041 BKN055 BKN080 24/22 A2978 RMK AO1 T02400215
K0V4 222155Z AUTO 03011G14KT 10SM SCT021 BKN039 OVC085 25/21 A2978 RMK AO1 T02460213
K0V4 222135Z AUTO 05009KT 10SM SCT020 BKN025 OVC085 27/22 A2978 RMK AO1 T02660224
K0V4 222115Z AUTO 36007KT 10SM BKN020 BKN042 OVC048 26/23 A2978 RMK AO1 T02640227
K0V4 222055Z AUTO 05007KT 10SM SCT033 BKN040 OVC060 29/25 A2978 RMK AO1 T02860246
K0V4 222035Z AUTO 10003KT 10SM SCT028 BKN033 OVC048 30/23 A2977 RMK AO1 T02960231
K0V4 222015Z AUTO 12005KT 10SM SCT026 BKN035 BKN043 29/24 A2977 RMK AO1 T02900240
K0V4 221955Z AUTO 09007KT 10SM SCT024 SCT031 BKN040 29/24 A2977 RMK AO1 T02890239
K0V4 221935Z AUTO 07007KT 10SM SCT022 BKN033 OVC043 29/24 A2978 RMK AO1 T02860238
K0V4 221915Z AUTO 09005KT 10SM SCT022 BKN029 OVC065 29/24 A2979 RMK AO1 T02850239